Time;durP1;ratioP1;P1;durP2;ratioP2;P2;SDS_P1;SDS_P2;PMS_P1;PMS_P2;Temp;Humidity;BMP_temperature;BMP_pressure;BME280_temperature;BME280_humidity;BME280_pressure;Samples;Min_cycle;Max_cycle;Signal;HPM_P1;HPM_P2
2021/05/01 00:00:59;;;;;;;0.50;0.40;;;8.30;99.90;;;;;;5054570;28;20194;-80
2021/05/01 00:03:25;;;;;;;0.50;0.40;;;8.40;99.90;;;;;;5055173;28;20681;-84
2021/05/01 00:05:52;;;;;;;0.50;0.40;;;8.40;99.90;;;;;;5055019;28;20731;-83
2021/05/01 00:08:18;;;;;;;0.50;0.40;;;8.40;99.90;;;;;;5054761;28;20222;-84
2021/05/01 00:10:45;;;;;;;1.48;1.48;;;8.40;99.90;;;;;;5055315;28;20198;-83
2021/05/01 00:13:11;;;;;;;0.50;0.40;;;8.40;99.90;;;;;;5054668;28;20195;-83
2021/05/01 00:15:38;;;;;;;0.50;0.40;;;8.40;99.90;;;;;;5053659;28;20229;-83
2021/05/01 00:18:05;;;;;;;1.48;1.38;;;8.40;99.90;;;;;;5048583;28;20218;-83
2021/05/01 00:20:32;;;;;;;2.40;2.00;;;8.30;99.90;;;;;;5054871;28;20203;-83
2021/05/01 00:22:58;;;;;;;1.10;1.00;;;8.30;99.90;;;;;;5054551;28;20206;-83
2021/05/01 00:25:24;;;;;;;0.50;0.40;;;8.30;99.90;;;;;;5054817;28;20212;-83
2021/05/01 00:27:51;;;;;;;1.50;1.40;;;8.30;99.90;;;;;;5055249;28;20195;-83
2021/05/01 00:30:17;;;;;;;1.98;1.88;;;8.30;99.90;;;;;;5055933;28;20194;-84
2021/05/01 00:32:44;;;;;;;0.70;0.70;;;8.30;99.90;;;;;;5056534;28;20198;-83
2021/05/01 00:35:11;;;;;;;0.85;0.85;;;8.30;99.90;;;;;;5056233;28;20222;-83
2021/05/01 00:37:38;;;;;;;0.50;0.40;;;8.30;99.90;;;;;;5055200;28;20696;-83
2021/05/01 00:40:05;;;;;;;0.50;0.40;;;8.30;99.90;;;;;;5055345;28;20246;-83
2021/05/01 00:42:32;;;;;;;0.50;0.40;;;8.30;99.90;;;;;;5056061;28;20189;-84
2021/05/01 00:44:58;;;;;;;2.22;1.27;;;8.30;99.90;;;;;;5058896;28;20234;-83
2021/05/01 00:47:24;;;;;;;2.90;2.05;;;8.30;99.90;;;;;;5050714;28;20188;-83
2021/05/01 00:49:51;;;;;;;0.50;0.40;;;8.30;99.90;;;;;;5059310;28;20206;-83
2021/05/01 00:52:18;;;;;;;1.55;1.05;;;8.30;99.90;;;;;;5058579;28;20198;-83
2021/05/01 00:54:44;;;;;;;0.60;0.60;;;8.40;99.90;;;;;;5058714;28;20222;-83
2021/05/01 00:57:11;;;;;;;2.90;2.78;;;8.40;99.90;;;;;;5058796;28;20211;-83
2021/05/01 00:59:38;;;;;;;0.50;0.40;;;8.30;99.90;;;;;;5058393;28;20664;-83
2021/05/01 01:02:04;;;;;;;0.50;0.40;;;8.30;99.90;;;;;;5058631;28;20195;-84
2021/05/01 01:04:31;;;;;;;1.50;1.40;;;8.30;99.90;;;;;;5058672;28;20563;-82
2021/05/01 01:06:58;;;;;;;4.50;3.00;;;8.30;99.90;;;;;;5057827;28;20199;-83
2021/05/01 01:09:25;;;;;;;0.82;0.82;;;8.30;99.90;;;;;;5058159;28;20191;-82
2021/05/01 01:11:51;;;;;;;0.50;0.40;;;8.30;99.90;;;;;;5058009;28;20564;-83
2021/05/01 01:14:18;;;;;;;0.50;0.40;;;8.30;99.90;;;;;;5058811;28;20211;-83
2021/05/01 01:16:45;;;;;;;2.05;1.85;;;8.30;99.90;;;;;;5049592;28;20306;-83
2021/05/01 01:19:13;;;;;;;0.50;0.40;;;8.30;99.90;;;;;;5058224;28;20756;-83
2021/05/01 01:21:42;;;;;;;1.50;1.40;;;8.30;99.90;;;;;;5058287;28;20202;-83
2021/05/01 01:24:10;;;;;;;3.47;2.88;;;8.30;99.90;;;;;;5059019;28;20207;-83
2021/05/01 01:26:37;;;;;;;0.70;0.65;;;8.30;99.90;;;;;;5058781;28;20245;-83
2021/05/01 01:29:05;;;;;;;0.57;0.45;;;8.40;99.90;;;;;;5058921;28;20196;-83
2021/05/01 01:31:31;;;;;;;0.50;0.40;;;8.30;99.90;;;;;;5057839;28;20195;-81
2021/05/01 01:33:59;;;;;;;0.50;0.50;;;8.30;99.90;;;;;;5057894;28;20206;-83
2021/05/01 01:36:25;;;;;;;1.05;1.05;;;8.30;99.90;;;;;;5057562;28;20282;-80
2021/05/01 01:38:52;;;;;;;6.93;3.53;;;8.30;99.90;;;;;;5058314;28;20698;-83
2021/05/01 01:41:19;;;;;;;0.70;0.70;;;8.30;99.90;;;;;;5057540;28;20282;-83
2021/05/01 01:43:46;;;;;;;0.50;0.40;;;8.30;99.90;;;;;;5057894;28;20191;-83
2021/05/01 01:46:12;;;;;;;0.60;0.60;;;8.30;99.90;;;;;;5051467;28;20227;-83
2021/05/01 01:48:39;;;;;;;0.70;0.70;;;8.30;99.90;;;;;;5055058;28;20191;-83
2021/05/01 01:51:05;;;;;;;1.25;1.25;;;8.30;99.90;;;;;;5057939;28;20202;-83
2021/05/01 01:53:31;;;;;;;1.63;1.52;;;8.40;99.90;;;;;;5057068;28;20194;-82
2021/05/01 01:55:58;;;;;;;0.50;0.40;;;8.40;99.90;;;;;;5057469;28;20215;-82
2021/05/01 01:58:25;;;;;;;0.95;0.95;;;8.30;99.90;;;;;;5057995;28;20210;-82
2021/05/01 02:00:53;;;;;;;0.50;0.40;;;8.30;99.90;;;;;;5057133;28;20192;-83
2021/05/01 02:03:20;;;;;;;0.50;0.40;;;8.30;99.90;;;;;;5057816;28;20686;-83
2021/05/01 02:05:46;;;;;;;2.47;2.28;;;8.30;99.90;;;;;;5056624;28;20638;-84
2021/05/01 02:08:13;;;;;;;2.45;1.55;;;8.20;99.90;;;;;;5057779;28;20293;-83
2021/05/01 02:10:39;;;;;;;0.50;0.40;;;8.20;99.90;;;;;;5057698;28;20191;-83
2021/05/01 02:13:06;;;;;;;0.50;0.50;;;8.10;99.90;;;;;;5057421;28;20316;-83
2021/05/01 02:15:34;;;;;;;0.50;0.40;;;8.00;99.90;;;;;;5056789;28;20226;-83
2021/05/01 02:18:02;;;;;;;2.63;2.45;;;7.90;99.90;;;;;;5049208;28;20216;-82
2021/05/01 02:20:30;;;;;;;0.65;0.65;;;7.90;99.90;;;;;;5057788;28;20206;-82
2021/05/01 02:22:57;;;;;;;0.57;0.55;;;7.90;99.90;;;;;;5057011;28;20210;-83
2021/05/01 02:25:24;;;;;;;0.50;0.40;;;8.00;99.90;;;;;;5057699;28;20271;-80
2021/05/01 02:27:50;;;;;;;0.50;0.50;;;7.90;99.90;;;;;;5056665;28;20190;-81
2021/05/01 02:30:18;;;;;;;1.50;1.40;;;7.90;99.90;;;;;;5056804;28;20202;-83
2021/05/01 02:32:47;;;;;;;0.60;0.40;;;7.90;99.90;;;;;;5055917;28;20202;-83
2021/05/01 02:35:15;;;;;;;0.50;0.40;;;7.90;99.90;;;;;;5057456;28;20218;-83
2021/05/01 02:37:42;;;;;;;0.77;0.77;;;8.00;99.90;;;;;;5056883;28;20214;-83
2021/05/01 02:40:11;;;;;;;0.73;0.73;;;8.00;99.90;;;;;;5057809;28;20195;-83
2021/05/01 02:42:38;;;;;;;0.88;0.88;;;8.00;99.90;;;;;;5056220;28;20191;-83
2021/05/01 02:45:06;;;;;;;12.38;2.88;;;8.00;99.90;;;;;;5056404;28;20309;-83
2021/05/01 02:47:32;;;;;;;0.50;0.40;;;8.00;99.90;;;;;;5097265;22;20254;-82
2021/05/01 02:49:59;;;;;;;0.65;0.63;;;7.90;99.90;;;;;;5046391;28;20195;-81
2021/05/01 02:52:26;;;;;;;1.77;1.67;;;7.90;99.90;;;;;;5052308;28;20199;-82
2021/05/01 02:54:53;;;;;;;0.50;0.40;;;7.80;99.90;;;;;;5047799;28;20282;-82
2021/05/01 02:57:19;;;;;;;0.50;0.50;;;7.70;99.90;;;;;;5048741;28;20310;-82
2021/05/01 02:59:45;;;;;;;0.70;0.70;;;7.80;99.90;;;;;;5047463;28;20195;-82
2021/05/01 03:02:12;;;;;;;2.15;2.05;;;7.80;99.90;;;;;;5046874;28;20246;-81
2021/05/01 03:04:39;;;;;;;0.50;0.40;;;7.80;99.90;;;;;;5047719;28;20645;-82
2021/05/01 03:07:06;;;;;;;0.95;0.95;;;7.80;99.90;;;;;;5048028;28;20211;-82
2021/05/01 03:09:33;;;;;;;0.50;0.50;;;7.70;99.90;;;;;;5047683;28;20576;-82
2021/05/01 03:11:59;;;;;;;0.50;0.40;;;7.70;99.90;;;;;;5047491;28;20252;-82
2021/05/01 03:14:25;;;;;;;0.50;0.40;;;7.70;99.90;;;;;;5046740;28;20226;-82
2021/05/01 03:16:52;;;;;;;0.60;0.40;;;7.60;99.90;;;;;;5047715;28;20294;-81
2021/05/01 03:19:19;;;;;;;1.45;1.35;;;7.70;99.90;;;;;;5061267;28;20283;-82
2021/05/01 03:21:45;;;;;;;0.50;0.40;;;7.70;99.90;;;;;;5049233;28;20297;-79
2021/05/01 03:24:12;;;;;;;2.80;2.70;;;7.70;99.90;;;;;;5048125;28;20214;-81
2021/05/01 03:26:39;;;;;;;0.68;0.65;;;7.70;99.90;;;;;;5047442;28;20199;-81
2021/05/01 03:29:05;;;;;;;0.50;0.40;;;7.70;99.90;;;;;;5047195;28;20194;-82
2021/05/01 03:31:32;;;;;;;0.50;0.40;;;7.80;99.90;;;;;;5046910;28;20192;-82
2021/05/01 03:33:58;;;;;;;0.60;0.50;;;7.80;99.90;;;;;;5046785;28;20466;-82
2021/05/01 03:36:24;;;;;;;2.90;1.92;;;7.80;99.90;;;;;;5047496;28;20203;-81
2021/05/01 03:38:50;;;;;;;1.95;1.63;;;7.70;99.90;;;;;;5047112;28;20291;-81
2021/05/01 03:41:18;;;;;;;0.50;0.50;;;7.70;99.90;;;;;;5046416;28;20244;-82
2021/05/01 03:43:44;;;;;;;0.50;0.40;;;7.70;99.90;;;;;;5047691;28;20199;-81
2021/05/01 03:46:10;;;;;;;1.77;1.67;;;7.60;99.90;;;;;;5046370;28;20206;-82
2021/05/01 03:48:37;;;;;;;0.50;0.40;;;7.70;99.90;;;;;;5061303;28;20225;-81
2021/05/01 03:51:04;;;;;;;1.33;0.88;;;7.70;99.90;;;;;;5059515;28;20198;-81
2021/05/01 03:53:31;;;;;;;0.70;0.70;;;7.70;99.90;;;;;;5068640;28;20553;-81
2021/05/01 03:55:57;;;;;;;3.83;3.63;;;7.80;99.90;;;;;;5067957;28;20205;-80
2021/05/01 03:58:24;;;;;;;1.75;1.65;;;7.90;99.90;;;;;;5072997;28;20222;-82
2021/05/01 04:00:51;;;;;;;3.47;3.20;;;7.90;99.90;;;;;;5075031;28;20186;-82
2021/05/01 04:03:17;;;;;;;0.60;0.40;;;7.90;99.90;;;;;;5070452;28;20220;-80
2021/05/01 04:05:43;;;;;;;0.50;0.50;;;7.80;99.90;;;;;;5068242;28;20206;-80
2021/05/01 04:08:10;;;;;;;4.93;4.72;;;7.70;99.90;;;;;;5068514;28;20214;-81
2021/05/01 04:10:36;;;;;;;0.50;0.40;;;7.80;99.90;;;;;;5066409;28;20194;-81
2021/05/01 04:13:03;;;;;;;0.50;0.40;;;7.70;99.90;;;;;;5066365;28;20715;-80
2021/05/01 04:15:30;;;;;;;0.68;0.68;;;7.60;99.90;;;;;;5068116;28;20194;-80
2021/05/01 04:17:56;;;;;;;7.95;5.45;;;7.60;99.90;;;;;;5065598;28;20225;-80
2021/05/01 04:20:23;;;;;;;1.17;1.08;;;7.60;99.90;;;;;;5059273;28;20195;-81
2021/05/01 04:22:49;;;;;;;1.67;1.58;;;7.60;99.90;;;;;;5065245;28;20199;-80
2021/05/01 04:25:15;;;;;;;1.80;1.70;;;7.50;99.90;;;;;;5067782;28;20194;-80
2021/05/01 04:27:42;;;;;;;0.63;0.63;;;7.50;99.90;;;;;;5067129;28;20282;-80
2021/05/01 04:30:10;;;;;;;0.50;0.40;;;7.50;99.90;;;;;;5067406;28;20195;-80
2021/05/01 04:32:37;;;;;;;0.60;0.40;;;7.30;99.90;;;;;;5066025;28;20213;-80
2021/05/01 04:35:04;;;;;;;0.88;0.88;;;7.30;99.90;;;;;;5066998;28;20206;-78
2021/05/01 04:37:31;;;;;;;1.02;1.02;;;7.20;99.90;;;;;;5067833;28;20218;-79
2021/05/01 04:39:57;;;;;;;1.80;1.70;;;7.20;99.90;;;;;;5067333;28;20198;-80
2021/05/01 04:42:24;;;;;;;4.97;2.58;;;7.20;99.90;;;;;;5067087;28;20247;-80
2021/05/01 04:44:50;;;;;;;1.05;1.05;;;7.10;99.90;;;;;;5067608;28;20197;-77
2021/05/01 04:47:17;;;;;;;0.50;0.40;;;7.10;99.90;;;;;;5066646;28;20237;-79
2021/05/01 04:49:44;;;;;;;0.73;0.73;;;7.10;99.90;;;;;;5057579;28;20451;-78
2021/05/01 04:52:10;;;;;;;2.17;1.83;;;7.10;99.90;;;;;;5066087;28;20254;-80
2021/05/01 04:54:37;;;;;;;5.85;2.38;;;7.10;99.90;;;;;;5066994;28;20194;-80
2021/05/01 04:57:03;;;;;;;2.08;1.90;;;7.10;99.90;;;;;;5067875;28;20256;-80
2021/05/01 04:59:30;;;;;;;2.95;2.75;;;7.00;99.90;;;;;;5067821;28;20218;-80
2021/05/01 05:01:56;;;;;;;5.45;2.35;;;7.00;99.90;;;;;;5065828;28;20214;-81
2021/05/01 05:04:22;;;;;;;0.50;0.40;;;6.90;99.90;;;;;;5055337;28;20195;-79
2021/05/01 05:06:49;;;;;;;0.50;0.40;;;6.90;99.90;;;;;;5055259;28;20277;-79
2021/05/01 05:09:15;;;;;;;3.15;2.85;;;6.90;99.90;;;;;;5056349;28;20191;-80
2021/05/01 05:11:42;;;;;;;3.53;3.33;;;6.90;99.90;;;;;;5056112;28;20197;-80
2021/05/01 05:14:08;;;;;;;0.50;0.40;;;7.00;99.90;;;;;;5056844;28;20673;-80
2021/05/01 05:16:34;;;;;;;8.45;2.95;;;7.00;99.90;;;;;;5057749;28;20592;-80
2021/05/01 05:19:01;;;;;;;4.45;3.08;;;7.00;99.90;;;;;;5054146;28;20207;-78
2021/05/01 05:21:27;;;;;;;0.50;0.47;;;7.00;99.90;;;;;;5055176;28;20195;-79
2021/05/01 05:23:54;;;;;;;14.18;3.22;;;7.10;99.90;;;;;;5070043;28;20199;-80
2021/05/01 05:26:22;;;;;;;1.38;1.25;;;7.10;99.90;;;;;;5065404;28;20229;-80
2021/05/01 05:28:49;;;;;;;0.50;0.40;;;7.20;99.90;;;;;;5065110;28;20215;-79
2021/05/01 05:31:15;;;;;;;1.83;1.73;;;7.30;99.90;;;;;;5066223;28;20265;-80
2021/05/01 05:33:41;;;;;;;2.45;2.25;;;7.30;99.90;;;;;;5065852;28;20230;-80
2021/05/01 05:36:07;;;;;;;2.85;2.75;;;7.40;99.90;;;;;;5068033;28;20738;-80
2021/05/01 05:38:34;;;;;;;2.75;2.55;;;7.50;99.90;;;;;;5068491;28;20302;-80
2021/05/01 05:41:01;;;;;;;4.78;1.73;;;7.60;99.90;;;;;;5067586;28;20244;-79
2021/05/01 05:43:28;;;;;;;3.13;2.92;;;7.60;99.90;;;;;;5068738;28;20205;-81
2021/05/01 05:45:54;;;;;;;4.80;4.00;;;7.60;99.90;;;;;;5067979;28;20290;-79
2021/05/01 05:48:22;;;;;;;3.88;3.55;;;7.60;99.90;;;;;;5068928;28;20228;-79
2021/05/01 05:50:48;;;;;;;3.88;3.65;;;7.70;99.90;;;;;;5059765;28;20190;-80
2021/05/01 05:53:14;;;;;;;6.15;3.45;;;7.70;99.90;;;;;;5068770;28;20294;-80
2021/05/01 05:55:41;;;;;;;1.00;1.00;;;7.80;99.90;;;;;;5068748;28;20205;-80
2021/05/01 05:58:08;;;;;;;1.15;1.05;;;7.80;99.90;;;;;;5069136;28;20219;-80
2021/05/01 06:00:35;;;;;;;1.02;1.02;;;8.00;99.90;;;;;;5068475;28;20198;-81
2021/05/01 06:03:02;;;;;;;0.60;0.55;;;8.10;99.90;;;;;;5068790;28;20241;-80
2021/05/01 06:05:29;;;;;;;2.45;2.35;;;8.20;99.90;;;;;;5069436;28;20208;-81
2021/05/01 06:07:59;;;;;;;2.70;2.15;;;8.30;99.90;;;;;;5069484;28;20234;-80
2021/05/01 06:10:25;;;;;;;0.50;0.40;;;8.40;99.90;;;;;;5069319;28;20198;-80
2021/05/01 06:12:53;;;;;;;1.63;1.30;;;8.40;99.90;;;;;;5067840;28;20286;-79
2021/05/01 06:15:20;;;;;;;0.60;0.50;;;8.40;99.90;;;;;;5069491;28;20207;-81
2021/05/01 06:17:49;;;;;;;0.60;0.60;;;8.40;99.90;;;;;;5068660;28;20226;-80
2021/05/01 06:20:16;;;;;;;2.85;2.05;;;8.40;99.90;;;;;;5060946;28;20195;-81
2021/05/01 06:22:42;;;;;;;0.70;0.70;;;8.40;99.90;;;;;;5069000;28;20259;-80
2021/05/01 06:25:11;;;;;;;0.50;0.40;;;8.30;99.90;;;;;;5071513;28;20249;-80
2021/05/01 06:27:38;;;;;;;2.00;1.13;;;8.30;99.90;;;;;;5076760;28;20221;-81
2021/05/01 06:30:06;;;;;;;0.50;0.50;;;8.40;99.90;;;;;;5071231;28;20202;-81
2021/05/01 06:32:33;;;;;;;0.65;0.65;;;9.10;99.90;;;;;;5069713;28;20230;-80
2021/05/01 06:35:00;;;;;;;24.60;2.60;;;9.90;99.90;;;;;;5069313;28;20191;-82
2021/05/01 06:37:28;;;;;;;0.50;0.50;;;10.80;99.90;;;;;;5069282;28;20216;-81
2021/05/01 06:39:57;;;;;;;6.63;5.95;;;11.80;99.90;;;;;;5068895;28;20204;-79
2021/05/01 06:42:25;;;;;;;2.25;1.25;;;12.10;99.90;;;;;;5068548;28;20686;-81
2021/05/01 06:44:56;;;;;;;7.70;3.08;;;12.20;99.90;;;;;;5071631;28;20525;-79
2021/05/01 06:47:25;;;;;;;1.80;1.70;;;12.20;99.90;;;;;;5070413;28;20289;-81
2021/05/01 06:49:58;;;;;;;1.60;0.77;;;11.90;99.90;;;;;;5060874;28;20182;-81
2021/05/01 06:52:25;;;;;;;1.42;1.38;;;12.00;99.90;;;;;;5067613;28;20311;-81
2021/05/01 06:54:53;;;;;;;0.50;0.40;;;12.70;99.90;;;;;;5068539;28;20186;-78
2021/05/01 06:57:24;;;;;;;6.40;5.55;;;13.40;99.90;;;;;;5068172;28;20282;-81
2021/05/01 06:59:54;;;;;;;1.80;1.58;;;13.80;99.90;;;;;;5068224;28;20197;-81
2021/05/01 07:02:25;;;;;;;0.60;0.60;;;13.40;99.90;;;;;;5067905;28;20182;-81
2021/05/01 07:04:54;;;;;;;1.00;0.90;;;13.00;99.90;;;;;;5067694;28;20219;-77
2021/05/01 07:07:22;;;;;;;2.60;2.40;;;12.60;99.90;;;;;;5068658;28;20214;-80
2021/05/01 07:09:49;;;;;;;0.50;0.40;;;12.20;99.90;;;;;;5068345;28;20190;-81
2021/05/01 07:12:17;;;;;;;0.60;0.55;;;12.10;99.90;;;;;;5067418;28;20559;-78
2021/05/01 07:14:44;;;;;;;4.32;2.90;;;11.90;99.90;;;;;;5068325;28;20202;-82
2021/05/01 07:17:13;;;;;;;0.85;0.85;;;11.80;99.90;;;;;;5067855;28;20227;-81
2021/05/01 07:19:40;;;;;;;0.50;0.40;;;11.90;99.90;;;;;;5059272;28;20506;-80
2021/05/01 07:22:07;;;;;;;0.50;0.40;;;12.10;99.90;;;;;;5067127;28;20216;-81
2021/05/01 07:24:34;;;;;;;3.25;1.20;;;12.40;99.90;;;;;;5068255;28;20201;-81
2021/05/01 07:27:01;;;;;;;0.50;0.38;;;12.80;99.90;;;;;;5068631;28;20274;-81
2021/05/01 07:29:32;;;;;;;2.92;2.72;;;12.60;99.90;;;;;;5068133;28;20193;-80
2021/05/01 07:31:59;;;;;;;0.60;0.60;;;12.60;99.90;;;;;;5067572;28;20199;-82
2021/05/01 07:34:27;;;;;;;2.13;1.92;;;12.90;99.90;;;;;;5066866;28;20206;-81
2021/05/01 07:36:56;;;;;;;2.40;2.15;;;13.40;99.90;;;;;;5067449;28;20224;-80
2021/05/01 07:39:24;;;;;;;0.73;0.73;;;13.70;99.90;;;;;;5067565;28;20210;-80
2021/05/01 07:41:56;;;;;;;0.57;0.55;;;14.60;99.90;;;;;;5067787;28;20707;-81
2021/05/01 07:44:25;;;;;;;6.00;3.50;;;14.80;99.90;;;;;;5072278;28;20191;-80
2021/05/01 07:46:52;;;;;;;0.83;0.83;;;15.00;99.90;;;;;;5073879;28;20201;-81
2021/05/01 07:49:18;;;;;;;1.40;1.30;;;14.70;99.90;;;;;;5053528;28;20444;-81
2021/05/01 07:51:45;;;;;;;2.33;2.13;;;14.50;99.90;;;;;;5065145;28;20194;-80
2021/05/01 07:54:12;;;;;;;1.42;1.33;;;14.70;99.90;;;;;;5069100;28;20463;-81
2021/05/01 07:56:40;;;;;;;0.50;0.40;;;14.40;99.90;;;;;;5068566;28;20194;-81
2021/05/01 07:59:07;;;;;;;0.50;0.40;;;14.10;99.90;;;;;;5066935;28;20627;-81
2021/05/01 08:01:33;;;;;;;0.50;0.40;;;14.00;99.90;;;;;;5067404;28;20182;-81
2021/05/01 08:04:00;;;;;;;0.52;0.52;;;14.50;99.90;;;;;;5068192;28;20195;-80
2021/05/01 08:06:27;;;;;;;1.38;1.27;;;14.60;99.90;;;;;;5070222;28;20225;-82
2021/05/01 08:08:54;;;;;;;1.13;0.70;;;14.70;99.90;;;;;;5068925;28;20281;-81
2021/05/01 08:11:20;;;;;;;0.50;0.38;;;14.30;99.90;;;;;;5068008;28;20285;-81
2021/05/01 08:13:48;;;;;;;0.50;0.40;;;13.90;99.90;;;;;;5067344;28;20222;-81
2021/05/01 08:16:14;;;;;;;0.73;0.60;;;13.60;99.90;;;;;;5067223;28;20314;-80
2021/05/01 08:18:41;;;;;;;1.00;0.90;;;14.40;99.90;;;;;;5065823;28;20218;-81
2021/05/01 08:21:07;;;;;;;2.45;1.25;;;14.70;99.90;;;;;;5060467;28;20195;-81
2021/05/01 08:23:33;;;;;;;0.55;0.55;;;14.80;99.90;;;;;;5068506;28;20266;-80
2021/05/01 08:26:00;;;;;;;0.50;0.50;;;14.90;99.90;;;;;;5067995;28;20309;-80
2021/05/01 08:28:27;;;;;;;1.42;0.88;;;14.90;99.90;;;;;;5068089;28;20218;-81
2021/05/01 08:30:54;;;;;;;0.50;0.30;;;14.60;99.90;;;;;;5068263;28;20205;-78
2021/05/01 08:33:20;;;;;;;2.88;2.67;;;14.50;99.90;;;;;;5066991;28;20266;-81
2021/05/01 08:35:47;;;;;;;1.35;1.25;;;14.70;99.90;;;;;;5068789;28;20237;-81
2021/05/01 08:38:14;;;;;;;4.22;3.83;;;14.80;99.90;;;;;;5067492;28;20210;-81
2021/05/01 08:40:40;;;;;;;0.70;0.70;;;15.10;99.90;;;;;;5067689;28;20266;-81
2021/05/01 08:43:07;;;;;;;0.50;0.40;;;14.80;99.90;;;;;;5067840;28;20504;-81
2021/05/01 08:45:33;;;;;;;0.60;0.40;;;15.50;99.90;;;;;;5067920;28;20214;-81
2021/05/01 08:48:01;;;;;;;0.50;0.40;;;15.70;99.90;;;;;;5067652;28;20478;-81
2021/05/01 08:50:43;;;;;;;0.80;0.77;;;15.60;99.90;;;;;;5066455;23;20517;-78
2021/05/01 08:53:10;;;;;;;4.97;0.88;;;15.10;99.90;;;;;;5063111;28;20293;-78
2021/05/01 08:55:38;;;;;;;2.13;1.02;;;14.60;99.90;;;;;;5071071;28;20205;-77
2021/05/01 08:58:06;;;;;;;0.65;0.63;;;14.20;99.90;;;;;;5071183;28;20308;-77
2021/05/01 09:00:34;;;;;;;0.50;0.40;;;14.00;99.90;;;;;;5055881;28;20738;-77
2021/05/01 09:03:06;;;;;;;0.50;0.40;;;14.40;99.90;;;;;;5048024;28;20203;-81
2021/05/01 09:05:35;;;;;;;0.50;0.40;;;15.00;99.90;;;;;;5051618;28;20859;-81
2021/05/01 09:08:05;;;;;;;0.50;0.40;;;15.50;99.90;;;;;;5016452;28;20978;-76
2021/05/01 09:10:38;;;;;;;1.00;1.00;;;15.80;99.90;;;;;;5015020;28;21017;-79
2021/05/01 09:13:12;;;;;;;0.50;0.50;;;15.50;99.90;;;;;;5014673;28;20459;-76
2021/05/01 09:15:39;;;;;;;0.50;0.40;;;14.70;99.90;;;;;;5016846;28;20184;-77
2021/05/01 09:18:06;;;;;;;2.65;2.55;;;14.20;99.90;;;;;;5016091;28;20287;-77
2021/05/01 09:20:33;;;;;;;1.80;1.70;;;14.00;99.90;;;;;;5016071;28;20220;-77
2021/05/01 09:23:01;;;;;;;0.50;0.40;;;14.30;99.90;;;;;;5015998;28;20199;-79
2021/05/01 09:25:30;;;;;;;1.30;1.20;;;15.00;99.90;;;;;;5015899;28;20207;-78
2021/05/01 09:28:06;;;;;;;0.50;0.30;;;15.70;97.80;;;;;;5015693;28;20498;-77
2021/05/01 09:30:35;;;;;;;0.50;0.40;;;16.20;98.90;;;;;;5015859;28;20835;-79
2021/05/01 09:33:29;;;;;;;1.43;1.33;;;16.90;98.40;;;;;;5016945;28;20443;-78
2021/05/01 09:36:05;;;;;;;8.43;4.93;;;17.70;88.50;;;;;;5054632;28;20434;-78
2021/05/01 09:38:37;;;;;;;5.20;3.67;;;17.70;84.50;;;;;;5055844;28;20513;-78
2021/05/01 09:41:10;;;;;;;0.50;0.37;;;17.00;84.50;;;;;;5055204;28;20541;-78
2021/05/01 09:43:53;;;;;;;0.50;0.40;;;16.50;90.00;;;;;;5055964;28;20434;-80
2021/05/01 09:46:19;;;;;;;0.50;0.40;;;17.10;90.00;;;;;;5055677;28;20440;-80
2021/05/01 09:49:02;;;;;;;0.50;0.50;;;17.60;83.30;;;;;;5055743;28;20429;-79
2021/05/01 09:51:32;;;;;;;3.87;1.33;;;18.00;79.80;;;;;;5055819;28;20481;-79
2021/05/01 09:53:59;;;;;;;0.50;0.40;;;17.50;67.10;;;;;;5055956;28;20539;-79
2021/05/01 09:56:26;;;;;;;1.70;0.80;;;17.10;69.20;;;;;;5056399;28;20440;-78
2021/05/01 09:58:53;;;;;;;2.90;2.70;;;17.00;75.50;;;;;;5055370;28;20500;-79
2021/05/01 10:01:20;;;;;;;0.57;0.53;;;16.70;77.00;;;;;;5055245;28;20491;-78
2021/05/01 10:03:46;;;;;;;2.23;2.13;;;16.40;80.90;;;;;;5047557;28;20955;-79
2021/05/01 10:06:15;;;;;;;0.60;0.50;;;16.20;79.30;;;;;;5054973;28;20894;-79
2021/05/01 10:08:43;;;;;;;0.90;0.90;;;15.90;78.30;;;;;;5054787;28;20684;-78
2021/05/01 10:11:11;;;;;;;1.77;1.63;;;15.80;84.30;;;;;;5054986;28;20951;-78
2021/05/01 10:13:50;;;;;;;1.30;1.07;;;16.00;81.70;;;;;;5055209;28;20473;-80
2021/05/01 10:16:17;;;;;;;1.30;1.20;;;16.00;79.20;;;;;;5053865;28;20535;-79
2021/05/01 10:19:08;;;;;;;0.50;0.40;;;16.00;84.40;;;;;;5054876;28;20467;-78
2021/05/01 10:21:36;;;;;;;2.33;1.13;;;16.40;80.20;;;;;;5054912;28;20452;-78
2021/05/01 10:24:04;;;;;;;3.93;3.63;;;16.60;81.40;;;;;;5055042;28;20533;-79
2021/05/01 10:26:45;;;;;;;1.50;1.37;;;16.50;74.00;;;;;;5055361;28;20473;-79
2021/05/01 10:29:25;;;;;;;1.73;0.90;;;16.20;71.20;;;;;;5054641;28;20515;-77
2021/05/01 10:31:55;;;;;;;0.63;0.50;;;15.60;73.00;;;;;;5053350;28;20445;-80
2021/05/01 10:34:25;;;;;;;0.80;0.80;;;15.90;75.70;;;;;;5046347;28;20430;-78
2021/05/01 10:36:54;;;;;;;2.67;2.47;;;16.40;76.70;;;;;;5054792;28;20829;-80
2021/05/01 10:39:21;;;;;;;0.50;0.40;;;16.80;74.20;;;;;;5055082;28;20487;-79
2021/05/01 10:41:56;;;;;;;0.83;0.83;;;17.00;74.70;;;;;;5054981;28;20528;-79
2021/05/01 10:44:23;;;;;;;0.60;0.50;;;16.60;74.30;;;;;;5055108;28;20539;-79
2021/05/01 10:46:49;;;;;;;1.33;1.07;;;16.20;73.40;;;;;;5054034;28;20437;-81
2021/05/01 10:49:16;;;;;;;1.00;1.00;;;16.10;73.60;;;;;;5054126;28;20454;-79
2021/05/01 10:51:44;;;;;;;0.50;0.40;;;16.00;76.80;;;;;;5054375;28;20443;-79
2021/05/01 10:54:12;;;;;;;0.80;0.80;;;16.50;76.10;;;;;;5053708;28;20537;-80
2021/05/01 10:56:44;;;;;;;1.37;1.27;;;17.30;70.80;;;;;;5054370;28;21053;-79
2021/05/01 10:59:12;;;;;;;0.70;0.70;;;17.20;71.20;;;;;;5053185;28;20559;-78
2021/05/01 11:01:47;;;;;;;0.70;0.50;;;17.20;71.90;;;;;;5052351;28;20433;-78
2021/05/01 11:04:19;;;;;;;0.70;0.63;;;17.30;74.40;;;;;;5047265;28;20444;-80
2021/05/01 11:06:50;;;;;;;0.50;0.47;;;17.20;67.50;;;;;;5054061;28;20491;-79
2021/05/01 11:09:30;;;;;;;0.50;0.40;;;16.80;68.90;;;;;;5053737;28;21042;-79
2021/05/01 11:12:00;;;;;;;5.30;5.00;;;16.40;72.00;;;;;;5053390;28;20447;-78
2021/05/01 11:14:29;;;;;;;0.50;0.30;;;16.60;75.70;;;;;;5053367;28;20466;-78
2021/05/01 11:17:10;;;;;;;1.07;0.90;;;16.90;73.70;;;;;;5051620;28;20792;-78
2021/05/01 11:19:42;;;;;;;0.60;0.50;;;16.90;68.00;;;;;;5052292;28;20507;-77
2021/05/01 11:22:13;;;;;;;0.50;0.40;;;16.40;66.40;;;;;;5052180;28;20417;-78
2021/05/01 11:24:40;;;;;;;1.03;1.03;;;16.10;67.50;;;;;;5052617;28;20445;-78
2021/05/01 11:27:07;;;;;;;1.80;1.50;;;15.80;66.10;;;;;;5053649;28;20460;-78
2021/05/01 11:29:34;;;;;;;1.80;1.70;;;15.70;66.60;;;;;;5052843;28;20464;-78
2021/05/01 11:32:01;;;;;;;0.50;0.40;;;15.60;67.60;;;;;;5052176;28;20491;-79
2021/05/01 11:34:30;;;;;;;0.50;0.40;;;15.50;69.80;;;;;;5045852;28;20446;-78
2021/05/01 11:36:59;;;;;;;0.97;0.97;;;15.40;68.80;;;;;;5052991;28;20506;-79
2021/05/01 11:39:28;;;;;;;1.13;1.03;;;15.30;71.30;;;;;;5052833;28;20978;-78
2021/05/01 11:41:56;;;;;;;1.60;1.60;;;15.20;70.30;;;;;;5052336;28;20449;-76
2021/05/01 11:44:24;;;;;;;0.50;0.40;;;15.00;69.00;;;;;;5052987;28;20437;-77
2021/05/01 11:46:55;;;;;;;0.50;0.40;;;15.30;71.20;;;;;;5054506;28;20444;-79
2021/05/01 11:49:24;;;;;;;1.93;1.00;;;15.30;69.20;;;;;;5054065;28;20662;-79
2021/05/01 11:52:05;;;;;;;0.50;0.30;;;15.40;67.60;;;;;;5051858;28;20437;-79
2021/05/01 11:54:41;;;;;;;0.60;0.50;;;15.90;68.50;;;;;;5052741;28;20429;-79
2021/05/01 11:57:16;;;;;;;2.27;2.07;;;16.30;66.80;;;;;;5052577;28;20582;-78
2021/05/01 11:59:46;;;;;;;1.17;1.07;;;15.90;67.40;;;;;;5052257;28;20478;-79
2021/05/01 12:02:14;;;;;;;1.57;1.47;;;15.70;65.70;;;;;;5052114;28;20441;-80
2021/05/01 12:04:47;;;;;;;0.50;0.30;;;15.60;66.30;;;;;;5045142;28;20810;-78
2021/05/01 12:07:20;;;;;;;0.50;0.30;;;15.60;68.40;;;;;;5052724;28;20837;-79
2021/05/01 12:09:50;;;;;;;0.50;0.40;;;15.70;68.50;;;;;;5052677;28;20455;-77
2021/05/01 12:12:18;;;;;;;0.53;0.40;;;16.40;69.10;;;;;;5051445;28;20849;-78
2021/05/01 12:14:47;;;;;;;0.50;0.43;;;17.40;68.80;;;;;;5052115;28;20931;-77
2021/05/01 12:17:15;;;;;;;0.50;0.37;;;18.40;62.30;;;;;;5051971;28;20960;-79
2021/05/01 12:19:43;;;;;;;0.50;0.30;;;19.40;58.10;;;;;;5052412;28;20481;-79
2021/05/01 12:22:26;;;;;;;0.50;0.30;;;20.30;55.60;;;;;;5052532;28;20465;-79
2021/05/01 12:24:53;;;;;;;1.30;0.60;;;21.60;55.40;;;;;;5052929;28;20444;-79
2021/05/01 12:27:47;;;;;;;0.50;0.30;;;22.00;55.60;;;;;;5052261;28;20433;-78
2021/05/01 12:30:59;;;;;;;0.50;0.40;;;21.90;53.00;;;;;;5052605;28;20483;-79
2021/05/01 12:33:49;;;;;;;2.43;1.57;;;21.90;52.20;;;;;;5046858;28;20476;-78
2021/05/01 12:36:18;;;;;;;1.37;0.80;;;21.10;52.10;;;;;;5039998;28;20499;-78
2021/05/01 12:38:50;;;;;;;0.60;0.50;;;20.30;54.00;;;;;;5053587;28;21010;-78
2021/05/01 12:41:21;;;;;;;0.50;0.30;;;19.60;54.40;;;;;;5056472;28;20432;-78
2021/05/01 12:43:49;;;;;;;0.87;0.87;;;18.80;54.20;;;;;;5055990;28;20450;-79
2021/05/01 12:46:32;;;;;;;0.60;0.50;;;18.00;57.00;;;;;;5055933;28;20448;-79
2021/05/01 12:49:00;;;;;;;1.53;1.33;;;17.10;58.90;;;;;;5054902;28;20498;-78
2021/05/01 12:51:28;;;;;;;4.00;2.03;;;16.50;60.60;;;;;;5055006;28;20479;-78
2021/05/01 12:53:57;;;;;;;0.50;0.40;;;16.20;61.10;;;;;;5055127;28;20798;-77
2021/05/01 12:56:26;;;;;;;0.50;0.30;;;16.20;62.30;;;;;;5055325;28;20435;-78
2021/05/01 12:59:27;;;;;;;0.50;0.40;;;16.20;64.20;;;;;;5054950;28;20473;-78